Latest Weather Observations for Borroloola

IDD60801

Issued at 8:31 am CST Saturday 27 August 2016 (issued every 30 minutes, with the page automatically refreshed every 10 minutes)

About weather observations | Map of weather stations | Latest weather observations for NT | Other Formats
Station Details ID: 014723 Name: BORROLOOLA AIRPORT Lat: -16.08 Lon: 136.30 Height: 16.1 m
Data from the previous 72 hours. | See also: Recent months at Borroloola
Date/Time
CST
Temp
°C
App
Temp
°C
Dew
Point
°C
Rel
Hum
%
Delta-T
°C
Wind Press
QNH
hPa
Press
MSL
hPa
Rain since
9am
mm
Dir  Spd
km/h
Gust
km/h
Spd
kts
Gust
kts
27/08:30am 19.3 14.9 0.4 28 8.3 ESE 13 19 7 10 1020.6 1020.5 0.0
27/08:00am 16.6 14.3 0.7 34 6.9 S 2 9 1 5 1020.3 1020.2 0.0
27/07:30am 12.8 11.2 4.3 56 3.9 SW 2 6 1 3 1020.2 1020.1 0.0
27/07:00am 9.4 8.1 4.0 69 2.4 CALM 0 0 0 0 1019.8 1019.7 0.0
27/06:30am 9.1 7.9 4.5 73 2.0 CALM 0 0 0 0 1019.2 1019.1 0.0
27/06:00am 9.1 7.8 4.1 71 2.2 CALM 0 0 0 0 1018.7 1018.6 0.0
27/05:30am 9.5 8.1 3.3 65 2.7 CALM 0 0 0 0 1018.3 1018.2 0.0
27/05:00am 9.9 8.4 3.0 62 3.0 CALM 0 0 0 0 1018.1 1018.0 0.0
27/04:30am 10.3 8.8 3.1 61 3.1 CALM 0 0 0 0 1018.0 1017.9 0.0
27/04:00am 11.2 9.7 3.0 57 3.6 CALM 0 0 0 0 1017.9 1017.8 0.0
27/03:30am 11.0 9.6 3.8 61 3.2 CALM 0 0 0 0 1017.9 1017.8 0.0
27/03:00am 11.3 10.0 4.1 61 3.2 CALM 0 0 0 0 1017.7 1017.6 0.0
27/02:30am 11.6 10.3 4.3 61 3.3 CALM 0 0 0 0 1017.4 1017.3 0.0
27/02:00am 11.8 10.6 4.8 62 3.2 CALM 0 0 0 0 1017.5 1017.4 0.0
27/01:30am 12.7 10.4 4.7 58 3.7 S 6 9 3 5 1017.6 1017.5 0.0
27/01:00am 13.7 12.5 4.6 54 4.2 CALM 0 0 0 0 1017.7 1017.6 0.0
27/12:30am 14.6 13.5 5.1 53 4.5 CALM 0 0 0 0 1017.9 1017.8 0.0
27/12:00am 15.7 14.1 6.4 54 4.5 E 4 7 2 4 1017.9 1017.8 0.0
 
Date/Time
CST
Temp
°C
App
Temp
°C
Dew
Point
°C
Rel
Hum
%
Delta-T
°C
Wind Press
QNH
hPa
Press
MSL
hPa
Rain since
9am
mm
Dir  Spd
km/h
Gust
km/h
Spd
kts
Gust
kts
26/11:30pm 16.2 13.7 6.6 53 4.7 ESE 9 13 5 7 1017.8 1017.7 0.0
26/11:00pm 14.7 14.3 8.2 65 3.3 CALM 0 7 0 4 1017.7 1017.6 0.0
26/10:30pm 16.2 15.9 8.7 61 3.8 CALM 0 0 0 0 1017.5 1017.4 0.0
26/10:00pm 17.7 17.2 7.7 52 5.1 CALM 0 0 0 0 1017.5 1017.4 0.0
26/09:30pm 19.4 18.1 9.3 52 5.3 E 6 6 3 3 1017.3 1017.2 0.0
26/09:00pm 20.7 19.4 9.9 50 5.8 E 7 9 4 5 1017.2 1017.1 0.0
26/08:30pm 21.5 20.1 9.7 47 6.3 ENE 7 11 4 6 1016.9 1016.8 0.0
26/08:00pm 22.0 20.1 8.9 43 7.0 NE 9 13 5 7 1016.6 1016.5 0.0
26/07:30pm 23.0 19.9 3.5 28 9.4 ENE 9 17 5 9 1016.0 1015.9 0.0
26/07:00pm 23.8 19.8 -1.9 18 11.3 SE 9 9 5 5 1015.4 1015.3 0.0
26/06:30pm 26.0 21.7 -1.7 16 12.4 SSE 11 15 6 8 1015.0 1014.9 0.0
26/06:00pm 28.0 22.9 -2.0 14 13.6 SSE 15 20 8 11 1014.7 1014.6 0.0
26/05:30pm 29.0 23.0 -3.2 12 14.4 SSE 19 24 10 13 1014.4 1014.3 0.0
26/05:00pm 29.5 23.4 -4.0 11 14.9 S 19 30 10 16 1014.2 1014.1 0.0
26/04:30pm 29.6 23.3 -3.9 11 14.9 SSE 20 30 11 16 1014.1 1014.0 0.0
26/04:00pm 30.0 24.3 -3.6 11 15.1 SE 17 26 9 14 1013.9 1013.8 0.0
26/03:30pm 30.0 23.9 -3.6 11 15.1 SE 19 28 10 15 1014.1 1014.0 0.0
26/03:00pm 29.8 23.7 -2.6 12 14.8 S 20 32 11 17 1014.4 1014.3 0.0
26/02:30pm 29.4 23.7 -4.1 11 14.8 SE 17 28 9 15 1014.6 1014.5 0.0
26/02:00pm 28.3 22.0 -3.8 12 14.2 SSE 20 28 11 15 1015.1 1015.0 0.0
26/01:30pm 28.3 22.0 -3.8 12 14.1 SSE 20 33 11 18 1015.6 1015.5 0.0
26/01:00pm 28.4 22.7 -3.7 12 14.2 SSE 17 28 9 15 1016.0 1015.9 0.0
26/12:30pm 27.4 20.4 -3.4 13 13.6 SSE 24 35 13 19 1016.5 1016.4 0.0
26/12:00pm 26.8 20.6 -2.9 14 13.1 SSE 20 30 11 16 1017.0 1016.9 0.0
26/11:30am 26.4 19.4 -3.2 14 13.0 SSE 24 33 13 18 1017.6 1017.5 0.0
26/11:00am 26.1 19.3 -1.7 16 12.5 SSE 24 35 13 19 1018.0 1017.9 0.0
26/10:30am 24.8 17.2 -1.9 17 11.8 SSE 28 39 15 21 1018.4 1018.3 0.0
26/10:00am 24.1 17.8 -0.9 19 11.2 SE 22 35 12 19 1018.6 1018.5 0.0
26/09:30am 22.9 16.9 -1.2 20 10.6 SE 20 30 11 16 1019.0 1018.9 0.0
26/09:00am 21.9 16.1 -0.1 23 9.8 ESE 20 32 11 17 1019.3 1019.2 0.0
26/08:30am 20.5 15.3 0.4 26 9.0 SE 17 24 9 13 1019.2 1019.1 0.0
26/08:00am 18.5 15.0 1.5 32 7.6 SE 9 11 5 6 1018.8 1018.7 0.0
26/07:30am 16.1 15.0 5.1 48 5.2 CALM 0 0 0 0 1018.7 1018.6 0.0
26/07:00am 13.3 12.4 6.2 62 3.4 CALM 0 0 0 0 1018.1 1018.0 0.0
26/06:30am 12.6 11.3 6.2 65 3.0 S 2 7 1 4 1017.8 1017.7 0.0
26/06:00am 13.0 10.8 6.1 63 3.3 SSW 7 9 4 5 1017.3 1017.2 0.0
26/05:30am 13.3 12.4 5.9 61 3.5 CALM 0 0 0 0 1016.8 1016.7 0.0
26/05:00am 14.5 12.0 5.0 53 4.4 SSE 7 7 4 4 1016.7 1016.6 0.0
26/04:30am 14.7 13.1 6.5 58 4.0 S 4 7 2 4 1016.5 1016.4 0.0
26/04:00am 15.9 15.1 6.3 53 4.7 CALM 0 0 0 0 1016.2 1016.1 0.0
26/03:30am 16.8 14.3 4.8 45 5.7 S 7 9 4 5 1016.0 1015.9 0.0
26/03:00am 17.6 14.3 6.2 47 5.6 SSE 13 15 7 8 1015.8 1015.7 0.0
26/02:30am 18.7 15.4 6.2 44 6.2 SSE 13 19 7 10 1016.0 1015.9 0.0
26/02:00am 17.7 16.9 13.0 74 2.6 SE 9 13 5 7 1016.0 1015.9 0.0
26/01:30am 17.3 16.2 13.0 76 2.4 SSE 11 13 6 7 1015.7 1015.6 0.0
26/01:00am 16.7 15.9 11.8 73 2.7 SSE 7 9 4 5 1015.6 1015.5 0.0
26/12:30am 17.2 16.8 11.0 67 3.3 SSE 4 7 2 4 1015.6 1015.5 0.0
26/12:00am 18.2 19.0 12.6 70 3.1 CALM 0 0 0 0 1015.7 1015.6 0.0
 
Date/Time
CST
Temp
°C
App
Temp
°C
Dew
Point
°C
Rel
Hum
%
Delta-T
°C
Wind Press
QNH
hPa
Press
MSL
hPa
Rain since
9am
mm
Dir  Spd
km/h
Gust
km/h
Spd
kts
Gust
kts
25/11:30pm 18.8 19.5 12.3 66 3.6 CALM 0 0 0 0 1015.7 1015.6 0.0
25/11:00pm 19.5 19.1 13.0 66 3.7 S 7 7 4 4 1015.5 1015.4 0.0
25/10:30pm 20.5 21.5 14.2 67 3.7 SSE 2 6 1 3 1015.2 1015.1 0.0
25/10:00pm 21.5 21.0 14.9 66 3.9 SSE 11 11 6 6 1015.0 1014.9 0.0
25/09:30pm 21.9 22.2 15.0 65 4.1 ESE 7 9 4 5 1014.4 1014.3 0.0
25/09:00pm 22.6 22.6 15.2 63 4.4 E 9 13 5 7 1014.1 1014.0 0.0
25/08:30pm 23.1 22.4 15.4 62 4.6 ENE 13 17 7 9 1013.7 1013.6 0.0
25/08:00pm 23.6 23.4 15.6 61 4.8 NE 11 17 6 9 1013.4 1013.3 0.0
25/07:30pm 23.9 23.3 15.7 60 5.0 ENE 13 19 7 10 1012.9 1012.8 0.0
25/07:00pm 24.6 23.8 15.2 55 5.6 ENE 13 19 7 10 1012.4 1012.3 0.0
25/06:30pm 25.9 25.1 15.0 51 6.6 NE 13 19 7 10 1012.1 1012.0 0.0
25/06:00pm 27.1 26.2 14.8 47 7.4 ENE 13 19 7 10 1011.8 1011.7 0.0
25/05:30pm 28.3 27.3 13.4 40 8.8 ENE 11 17 6 9 1011.4 1011.3 0.0
25/05:00pm 29.2 27.6 11.7 34 10.1 SSE 11 15 6 8 1011.1 1011.0 0.0
25/04:30pm 29.5 27.9 10.1 30 11.0 SSE 9 13 5 7 1011.0 1010.9 0.0
25/04:00pm 29.7 27.4 10.3 30 11.0 SE 13 20 7 11 1010.8 1010.7 0.0
25/03:30pm 29.4 27.1 10.5 31 10.8 SSE 13 19 7 10 1011.0 1010.9 0.0
25/03:00pm 30.1 29.6 10.6 30 11.1 SSE 4 9 2 5 1011.0 1010.9 0.0
25/02:30pm 29.0 27.5 10.6 32 10.5 SSE 9 17 5 9 1011.3 1011.2 0.0
25/02:00pm 28.9 27.0 10.6 32 10.4 ESE 11 17 6 9 1011.6 1011.5 0.0
25/01:30pm 28.9 27.1 11.0 33 10.2 S 11 17 6 9 1012.0 1011.9 0.0
25/01:00pm 30.8 29.4 12.2 32 10.9 SSW 11 24 6 13 1012.3 1012.2 0.0
25/12:30pm 28.8 27.5 11.4 34 10.0 E 9 15 5 8 1012.8 1012.7 0.0
25/12:00pm 27.6 25.3 11.6 37 9.2 SE 15 22 8 12 1013.4 1013.3 0.0
25/11:30am 27.5 25.5 11.5 37 9.2 ENE 13 22 7 12 1013.9 1013.8 0.0
25/11:00am 26.0 23.4 10.6 38 8.6 SE 15 24 8 13 1014.5 1014.4 0.0
25/10:30am 25.7 23.2 11.1 40 8.2 SE 15 26 8 14 1014.8 1014.7 0.0
25/10:00am 24.8 21.4 10.7 41 7.9 SE 19 32 10 17 1015.1 1015.0 0.0
25/09:30am 23.6 19.6 10.3 43 7.3 SE 22 28 12 15 1015.1 1015.0 0.0
25/09:00am 23.0 18.6 10.4 45 6.9 SE 24 32 13 17 1015.1 1015.0 0.0
25/08:30am 22.1 17.3 10.3 47 6.4 SE 26 39 14 21 1014.9 1014.8 0.0
25/08:00am 20.9 17.2 9.5 48 6.1 SE 19 26 10 14 1014.5 1014.4 0.0
25/07:30am 19.5 17.4 9.7 53 5.2 S 11 17 6 9 1014.3 1014.2 0.0
25/07:00am 18.2 16.9 9.8 58 4.4 S 7 9 4 5 1014.0 1013.9 0.0
25/06:30am 18.0 16.6 9.6 58 4.4 S 7 9 4 5 1013.8 1013.7 0.0
25/06:00am 18.0 16.7 9.9 59 4.3 S 7 9 4 5 1013.3 1013.2 0.0
25/05:30am 18.6 16.9 9.9 57 4.6 SSE 9 9 5 5 1012.8 1012.7 0.0
25/05:00am 19.2 17.2 10.2 56 4.8 S 11 13 6 7 1012.5 1012.4 0.0
25/04:30am 19.0 17.3 10.0 56 4.8 SSE 9 11 5 6 1012.4 1012.3 0.0
25/04:00am 19.8 18.7 10.5 55 5.0 SSE 7 11 4 6 1012.3 1012.2 0.0
25/03:30am 20.4 18.5 10.5 53 5.4 SSE 11 13 6 7 1012.2 1012.1 0.0
25/03:00am 20.8 19.2 10.3 51 5.7 S 9 13 5 7 1012.2 1012.1 0.0
25/02:30am 22.0 19.5 11.1 50 6.0 SSE 15 20 8 11 1012.1 1012.0 0.0
25/02:00am 21.9 20.1 11.0 50 6.0 SSE 11 15 6 8 1012.3 1012.2 0.0
25/01:30am 22.9 20.9 11.6 49 6.3 SSE 13 17 7 9 1012.4 1012.3 0.0
25/01:00am 23.4 20.8 12.1 49 6.4 SSE 17 19 9 10 1012.5 1012.4 0.0
25/12:30am 24.2 21.1 12.2 47 6.8 SSE 20 32 11 17 1012.4 1012.3 0.0
25/12:00am 24.8 21.8 12.7 47 7.0 SSE 20 28 11 15 1012.4 1012.3 0.0
 
Date/Time
CST
Temp
°C
App
Temp
°C
Dew
Point
°C
Rel
Hum
%
Delta-T
°C
Wind Press
QNH
hPa
Press
MSL
hPa
Rain since
9am
mm
Dir  Spd
km/h
Gust
km/h
Spd
kts
Gust
kts
24/11:30pm 25.5 22.6 13.0 46 7.3 SSE 20 32 11 17 1012.1 1012.0 0.0
24/11:00pm 26.3 23.6 13.4 45 7.6 SSE 20 30 11 16 1011.8 1011.7 0.0
24/10:30pm 26.4 23.6 11.3 39 8.6 SSE 17 22 9 12 1011.5 1011.4 0.0
24/10:00pm 27.1 24.3 11.2 37 9.0 S 17 22 9 12 1011.2 1011.1 0.0
24/09:30pm 25.8 23.9 10.4 38 8.6 S 11 13 6 7 1010.8 1010.7 0.0
24/09:00pm 27.0 25.3 11.1 37 9.0 S 11 13 6 7 1010.4 1010.3 0.0
24/08:30pm 27.4 25.6 11.0 36 9.3 SE 11 13 6 7 1010.1 1010.0 0.0
24/08:00pm 28.9 26.5 11.5 34 10.0 S 15 20 8 11 1009.6 1009.5 0.0
24/07:30pm 28.6 27.8 11.6 34 9.8 E 7 9 4 5 1009.2 1009.1 0.0
24/07:00pm 30.6 27.8 11.5 30 11.1 SSW 17 22 9 12 1008.4 1008.3 0.0
24/06:30pm 31.4 29.1 11.7 29 11.5 S 15 20 8 11 1007.8 1007.7 0.0
24/06:00pm 32.5 29.4 11.6 28 12.3 S 19 24 10 13 1007.2 1007.1 0.0
24/05:30pm 34.0 30.6 9.3 22 14.1 SW 17 24 9 13 1006.8 1006.7 0.0
24/05:00pm 35.0 31.3 7.9 19 15.2 WSW 17 24 9 13 1006.6 1006.5 0.0
24/04:30pm 34.2 30.5 8.0 20 14.7 WNW 17 26 9 14 1006.5 1006.4 0.0
24/04:00pm 34.4 30.0 7.5 19 14.9 W 20 30 11 16 1006.4 1006.3 0.0
24/03:30pm 34.7 30.4 7.7 19 15.1 WNW 20 33 11 18 1006.2 1006.1 0.0
24/03:00pm 36.0 31.7 9.5 20 15.3 W 22 33 12 18 1006.1 1006.0 0.0
24/02:30pm 35.9 32.6 11.5 23 14.5 WSW 20 30 11 16 1006.4 1006.3 0.0
24/02:00pm 35.0 32.0 12.6 26 13.5 WNW 20 35 11 19 1007.0 1006.9 0.0
24/01:30pm 34.8 32.5 13.0 26 13.2 W 17 35 9 19 1007.5 1007.4 0.0
24/01:00pm 33.5 31.6 13.0 29 12.3 W 15 24 8 13 1008.0 1007.9 0.0
24/12:30pm 32.3 29.8 13.5 32 11.4 W 19 26 10 14 1008.4 1008.3 0.0
24/12:00pm 33.6 31.7 14.1 30 11.9 WNW 17 28 9 15 1008.9 1008.8 0.0
24/11:30am 32.7 31.0 14.8 34 11.0 WNW 17 28 9 15 1009.6 1009.5 0.0
24/11:00am 33.1 30.8 15.6 35 10.9 W 22 32 12 17 1010.1 1010.0 0.0
24/10:30am 32.1 30.0 15.1 35 10.5 W 20 30 11 16 1010.3 1010.2 0.0
24/10:00am 30.6 29.9 17.3 45 8.4 WNW 17 26 9 14 1010.7 1010.6 0.0
24/09:30am 29.3 29.6 18.7 52 6.8 WNW 15 22 8 12 1010.9 1010.8 0.0
24/09:00am 28.7 28.8 19.1 56 6.2 WNW 17 22 9 12 1010.9 1010.8 0.0

Other Formats:

Comma delimited format used in spreadsheet applications
http://www.bom.gov.au/fwo/IDD60801/IDD60801.94152.axf

JavaScript Object Notation format (JSON) in row-major order
http://www.bom.gov.au/fwo/IDD60801/IDD60801.94152.json